Weather at Alpha Airport

Public forecast

Using degrees Celsius for public forecast. Weather courtesy of forecast.io.

Closest aviation weather report (METAR) to Alpha Airport

Closest report is Emerald Airport, 87.9 nm (162.7 km) E. Retrieved 2020/10/22 23:00 UTC (44 minutes ago):

YEML 222300Z AUTO 01011KT 9999 // OVC032 26/17 Q1014

Closest aviation forecast (TAF) to Alpha Airport

Closest forecast is Rockhampton Airport, 214.8 nm (397.8 km) E. Retrieved 2020/10/22 18:36 UTC (5 hours ago):

TAF TAF YBRK 221629Z 2218/2318 06005KT 9999 SCT018 BKN025 FM230000 05010KT 9999 BKN050 FM231000 05005KT 9999 SCT018 BKN025